Time;durP1;ratioP1;P1;durP2;ratioP2;P2;SDS_P1;SDS_P2;PMS_P1;PMS_P2;Temp;Humidity;BMP_temperature;BMP_pressure;BME280_temperature;BME280_humidity;BME280_pressure;Samples;Min_cycle;Max_cycle;Signal;HPM_P1;HPM_P2
2023/10/20 00:02:11;;;;;;;0.85;0.32;;;;;;;;;;4913202;29;20056;-73
2023/10/20 00:04:37;;;;;;;2.17;0.50;;;;;;;;;;4917246;29;20048;-73
2023/10/20 00:07:03;;;;;;;0.73;0.30;;;;;;;;;;4899741;29;20063;-72
2023/10/20 00:09:35;;;;;;;0.77;0.40;;;;;;;;;;4911602;29;20098;-75
2023/10/20 00:12:01;;;;;;;1.15;0.43;;;;;;;;;;4896685;29;20047;-71
2023/10/20 00:14:29;;;;;;;0.43;0.30;;;;;;;;;;4908202;29;20515;-73
2023/10/20 00:16:57;;;;;;;2.95;0.30;;;;;;;;;;4911989;29;20406;-73
2023/10/20 00:19:24;;;;;;;1.65;0.30;;;;;;;;;;4909200;29;20052;-72
2023/10/20 00:21:51;;;;;;;0.68;0.30;;;;;;;;;;4894458;29;20160;-73
2023/10/20 00:24:19;;;;;;;1.30;0.63;;;;;;;;;;4909665;29;20107;-72
2023/10/20 00:26:46;;;;;;;0.68;0.20;;;;;;;;;;4909660;29;20095;-74
2023/10/20 00:29:13;;;;;;;0.45;0.30;;;;;;;;;;4907143;29;20107;-72
2023/10/20 00:31:39;;;;;;;0.60;0.38;;;;;;;;;;4890411;29;20456;-72
2023/10/20 00:34:05;;;;;;;1.63;0.20;;;;;;;;;;4909866;29;20049;-73
2023/10/20 00:36:31;;;;;;;0.38;0.10;;;;;;;;;;4904329;29;20048;-74
2023/10/20 00:38:57;;;;;;;1.05;0.28;;;;;;;;;;4906784;29;20064;-73
2023/10/20 00:41:23;;;;;;;2.25;0.45;;;;;;;;;;4907495;29;20060;-72
2023/10/20 00:43:49;;;;;;;2.08;0.32;;;;;;;;;;4906445;29;20056;-72
2023/10/20 00:46:15;;;;;;;1.23;0.10;;;;;;;;;;4906827;29;20058;-73
2023/10/20 00:48:41;;;;;;;0.50;0.35;;;;;;;;;;4907064;29;20052;-72
2023/10/20 00:51:08;;;;;;;2.78;0.50;;;;;;;;;;4915500;29;20047;-71
2023/10/20 00:53:35;;;;;;;0.82;0.40;;;;;;;;;;4908651;29;20051;-73
2023/10/20 00:56:06;;;;;;;1.10;0.40;;;;;;;;;;4910542;29;20054;-74
2023/10/20 00:58:32;;;;;;;0.22;0.22;;;;;;;;;;4911491;29;20146;-72
2023/10/20 01:01:03;;;;;;;0.40;0.30;;;;;;;;;;4897588;29;20044;-75
2023/10/20 01:03:32;;;;;;;0.40;0.20;;;;;;;;;;4910835;29;20062;-76
2023/10/20 01:05:59;;;;;;;0.90;0.30;;;;;;;;;;4909217;29;20113;-74
2023/10/20 01:08:25;;;;;;;4.32;0.20;;;;;;;;;;4909785;29;20076;-73
2023/10/20 01:10:53;;;;;;;0.28;0.10;;;;;;;;;;4909700;29;20519;-74
2023/10/20 01:13:21;;;;;;;0.70;0.20;;;;;;;;;;4911518;29;20163;-73
2023/10/20 01:15:48;;;;;;;0.52;0.10;;;;;;;;;;4897203;29;20084;-72
2023/10/20 01:18:14;;;;;;;0.15;0.10;;;;;;;;;;4907867;29;20061;-73
2023/10/20 01:20:40;;;;;;;0.77;0.40;;;;;;;;;;4913760;29;20052;-72
2023/10/20 01:23:06;;;;;;;0.77;0.40;;;;;;;;;;4912554;29;20064;-70
2023/10/20 01:25:34;;;;;;;1.67;0.40;;;;;;;;;;4915059;29;20067;-70
2023/10/20 01:28:00;;;;;;;0.28;0.10;;;;;;;;;;4912652;29;20503;-74
2023/10/20 01:30:28;;;;;;;1.55;0.40;;;;;;;;;;4912992;29;20051;-72
2023/10/20 01:32:54;;;;;;;0.52;0.20;;;;;;;;;;4909160;29;20052;-73
2023/10/20 01:35:28;;;;;;;0.90;0.22;;;;;;;;;;4907429;29;20658;-73
2023/10/20 01:37:54;;;;;;;2.10;0.20;;;;;;;;;;4894149;29;20749;-71
2023/10/20 01:40:21;;;;;;;0.20;0.13;;;;;;;;;;4915986;29;20047;-75
2023/10/20 01:42:47;;;;;;;2.17;0.15;;;;;;;;;;4913083;29;20500;-73
2023/10/20 01:45:13;;;;;;;0.47;0.20;;;;;;;;;;4918025;29;20060;-72
2023/10/20 01:47:40;;;;;;;0.25;0.15;;;;;;;;;;4911603;29;20104;-71
2023/10/20 01:50:06;;;;;;;0.95;0.20;;;;;;;;;;4911264;29;20484;-72
2023/10/20 01:52:35;;;;;;;0.40;0.10;;;;;;;;;;4913463;29;20063;-71
2023/10/20 01:55:01;;;;;;;1.15;0.28;;;;;;;;;;4918178;29;20055;-73
2023/10/20 01:57:27;;;;;;;0.20;0.17;;;;;;;;;;4911387;29;20095;-71
2023/10/20 01:59:54;;;;;;;0.35;0.20;;;;;;;;;;4911001;29;20079;-73
2023/10/20 02:02:20;;;;;;;2.28;0.20;;;;;;;;;;4913711;29;20086;-70
2023/10/20 02:04:47;;;;;;;1.40;0.10;;;;;;;;;;4914973;29;20256;-73
2023/10/20 02:07:13;;;;;;;1.50;0.15;;;;;;;;;;4912973;29;20069;-73
2023/10/20 02:09:39;;;;;;;0.85;0.17;;;;;;;;;;4912297;29;20052;-73
2023/10/20 02:12:05;;;;;;;0.55;0.10;;;;;;;;;;4897615;29;20465;-73
2023/10/20 02:14:33;;;;;;;0.50;0.30;;;;;;;;;;4913773;29;20059;-73
2023/10/20 02:16:58;;;;;;;0.13;0.13;;;;;;;;;;4917068;29;20111;-73
2023/10/20 02:19:24;;;;;;;0.10;0.05;;;;;;;;;;4919863;29;20070;-73
2023/10/20 02:21:52;;;;;;;0.73;0.20;;;;;;;;;;4912475;29;20139;-72
2023/10/20 02:24:18;;;;;;;1.98;0.52;;;;;;;;;;4913476;29;20052;-72
2023/10/20 02:26:45;;;;;;;1.70;0.20;;;;;;;;;;4913489;29;20092;-73
2023/10/20 02:29:12;;;;;;;1.23;0.10;;;;;;;;;;4908041;29;20060;-72
2023/10/20 02:31:38;;;;;;;0.17;0.10;;;;;;;;;;4898443;29;20052;-72
2023/10/20 02:34:05;;;;;;;1.08;0.20;;;;;;;;;;4910161;29;20048;-73
2023/10/20 02:36:34;;;;;;;6.95;0.77;;;;;;;;;;4892490;29;20147;-73
2023/10/20 02:39:01;;;;;;;0.80;0.20;;;;;;;;;;4911113;29;20067;-75
2023/10/20 02:41:28;;;;;;;0.63;0.30;;;;;;;;;;4910449;29;20078;-73
2023/10/20 02:43:54;;;;;;;0.52;0.10;;;;;;;;;;4911363;29;20064;-73
2023/10/20 02:46:20;;;;;;;0.28;0.13;;;;;;;;;;4910833;29;20067;-73
2023/10/20 02:48:47;;;;;;;0.20;0.17;;;;;;;;;;4908776;29;20055;-73
2023/10/20 02:51:14;;;;;;;0.63;0.30;;;;;;;;;;4912064;29;20074;-72
2023/10/20 02:53:43;;;;;;;1.27;0.40;;;;;;;;;;4910074;29;20127;-71
2023/10/20 02:56:13;;;;;;;1.25;0.25;;;;;;;;;;4913688;29;20043;-72
2023/10/20 02:58:40;;;;;;;0.63;0.10;;;;;;;;;;4913740;29;20060;-71
2023/10/20 03:01:07;;;;;;;0.38;0.25;;;;;;;;;;4914550;29;20563;-72
2023/10/20 03:03:34;;;;;;;0.65;0.17;;;;;;;;;;4916019;29;20055;-74
2023/10/20 03:06:01;;;;;;;0.15;0.15;;;;;;;;;;4912008;29;20058;-73
2023/10/20 03:08:31;;;;;;;2.65;0.30;;;;;;;;;;4908828;29;20056;-72
2023/10/20 03:10:57;;;;;;;0.10;0.10;;;;;;;;;;4911353;29;20131;-72
2023/10/20 03:13:25;;;;;;;2.47;0.20;;;;;;;;;;4905794;29;20055;-73
2023/10/20 03:15:54;;;;;;;1.98;0.40;;;;;;;;;;4912266;29;20068;-74
2023/10/20 03:18:21;;;;;;;1.52;0.32;;;;;;;;;;4907671;29;20048;-73
2023/10/20 03:20:48;;;;;;;0.75;0.20;;;;;;;;;;4909566;29;20059;-72
2023/10/20 03:23:16;;;;;;;0.40;0.20;;;;;;;;;;4905930;29;20056;-72
2023/10/20 03:25:42;;;;;;;2.08;0.17;;;;;;;;;;4894862;29;20048;-72
2023/10/20 03:28:08;;;;;;;0.20;0.20;;;;;;;;;;4908629;29;20660;-74
2023/10/20 03:30:41;;;;;;;3.10;0.40;;;;;;;;;;4910077;29;20048;-72
2023/10/20 03:33:08;;;;;;;0.93;0.43;;;;;;;;;;4912426;29;20048;-71
2023/10/20 03:35:34;;;;;;;0.20;0.10;;;;;;;;;;4908662;29;20063;-73
2023/10/20 03:38:03;;;;;;;0.82;0.20;;;;;;;;;;4913103;29;20184;-72
2023/10/20 03:40:36;;;;;;;0.75;0.35;;;;;;;;;;4912315;29;20060;-74
2023/10/20 03:43:05;;;;;;;0.45;0.20;;;;;;;;;;4909282;29;20466;-73
2023/10/20 03:45:39;;;;;;;0.68;0.40;;;;;;;;;;4911361;29;20603;-72
2023/10/20 03:48:10;;;;;;;0.65;0.40;;;;;;;;;;4910013;29;20061;-71
2023/10/20 03:50:44;;;;;;;1.90;0.70;;;;;;;;;;4905801;29;20048;-72
2023/10/20 03:53:23;;;;;;;2.30;0.50;;;;;;;;;;4909099;29;20075;-70
2023/10/20 03:56:02;;;;;;;2.40;0.50;;;;;;;;;;4908718;29;20143;-73
2023/10/20 03:58:29;;;;;;;1.80;0.50;;;;;;;;;;4906686;29;20052;-72
2023/10/20 04:00:57;;;;;;;1.10;0.20;;;;;;;;;;4906848;29;20221;-72
2023/10/20 04:03:27;;;;;;;1.30;0.55;;;;;;;;;;4907556;29;20139;-73
2023/10/20 04:05:53;;;;;;;0.85;0.40;;;;;;;;;;4908335;29;20136;-71
2023/10/20 04:08:20;;;;;;;2.00;0.60;;;;;;;;;;4908837;29;20106;-73
2023/10/20 04:10:46;;;;;;;1.33;0.57;;;;;;;;;;4890893;29;20489;-71
2023/10/20 04:13:13;;;;;;;3.13;0.47;;;;;;;;;;4913318;29;20052;-72
2023/10/20 04:15:39;;;;;;;2.00;0.70;;;;;;;;;;4914055;29;20119;-72
2023/10/20 04:18:06;;;;;;;2.17;0.57;;;;;;;;;;4908768;29;20432;-71
2023/10/20 04:20:39;;;;;;;3.60;0.70;;;;;;;;;;4909951;29;20048;-73
2023/10/20 04:23:09;;;;;;;2.70;0.68;;;;;;;;;;4894009;29;20083;-71
2023/10/20 04:26:20;;;;;;;3.10;0.82;;;;;;;;;;4909939;29;20056;-73
2023/10/20 05:02:34;;;;;;;3.58;0.70;;;;;;;;;;4909813;29;20178;-72
2023/10/20 05:06:31;;;;;;;5.05;1.00;;;;;;;;;;4912812;29;20079;-71
2023/10/20 05:10:09;;;;;;;6.40;1.00;;;;;;;;;;4903553;29;20125;-72
2023/10/20 05:13:48;;;;;;;9.20;1.13;;;;;;;;;;4904350;29;20055;-71
2023/10/20 05:17:32;;;;;;;4.00;0.95;;;;;;;;;;4912584;29;20055;-72
2023/10/20 05:21:13;;;;;;;4.10;1.35;;;;;;;;;;4911782;29;20044;-74
2023/10/20 05:24:53;;;;;;;5.63;1.30;;;;;;;;;;4907059;29;20048;-71
2023/10/20 05:28:33;;;;;;;3.72;0.90;;;;;;;;;;4914078;29;20134;-72
2023/10/20 05:32:15;;;;;;;3.80;1.02;;;;;;;;;;4912222;29;20071;-73
2023/10/20 05:35:55;;;;;;;3.95;0.90;;;;;;;;;;4915927;29;20106;-71
2023/10/20 05:39:36;;;;;;;5.35;0.88;;;;;;;;;;4904508;29;20064;-73
2023/10/20 05:43:17;;;;;;;5.47;1.02;;;;;;;;;;4912698;29;20131;-74
2023/10/20 05:46:57;;;;;;;5.03;1.45;;;;;;;;;;4912737;29;20044;-73
2023/10/20 05:50:39;;;;;;;3.70;1.00;;;;;;;;;;4915109;29;20504;-70
2023/10/20 05:54:20;;;;;;;3.45;1.00;;;;;;;;;;4909548;29;20559;-70
2023/10/20 05:58:00;;;;;;;2.97;1.00;;;;;;;;;;4909216;29;20186;-72
2023/10/20 06:01:47;;;;;;;5.07;1.10;;;;;;;;;;4907318;29;20052;-73
2023/10/20 06:05:28;;;;;;;13.73;1.48;;;;;;;;;;4903032;29;20362;-71
2023/10/20 06:09:09;;;;;;;8.02;1.17;;;;;;;;;;4909898;29;20056;-73
2023/10/20 06:12:49;;;;;;;7.38;1.20;;;;;;;;;;4907729;29;20050;-69
2023/10/20 06:16:29;;;;;;;4.88;1.20;;;;;;;;;;4908154;29;20438;-70
2023/10/20 06:20:10;;;;;;;9.25;1.30;;;;;;;;;;4915822;29;20191;-69
2023/10/20 06:23:50;;;;;;;5.72;1.40;;;;;;;;;;4911654;29;20130;-69
2023/10/20 06:27:30;;;;;;;6.60;1.30;;;;;;;;;;4903773;29;20052;-70
2023/10/20 06:34:59;;;;;;;5.32;1.42;;;;;;;;;;4912442;29;20040;-68
2023/10/20 06:38:37;;;;;;;7.82;1.73;;;;;;;;;;4905512;29;20052;-68
2023/10/20 06:42:13;;;;;;;4.80;1.00;;;;;;;;;;4912301;29;20081;-68
2023/10/20 06:44:41;;;;;;;7.05;1.10;;;;;;;;;;4905086;29;20047;-68
2023/10/20 06:47:07;;;;;;;5.35;1.02;;;;;;;;;;4906983;29;20478;-68
2023/10/20 06:49:33;;;;;;;4.20;1.15;;;;;;;;;;4912003;29;20052;-63
2023/10/20 06:52:03;;;;;;;6.68;1.17;;;;;;;;;;4911692;29;20258;-75
2023/10/20 06:55:13;;;;;;;13.00;1.38;;;;;;;;;;4901728;29;20119;-72
2023/10/20 06:58:19;;;;;;;4.55;1.00;;;;;;;;;;4912773;29;20075;-72
2023/10/20 07:02:02;;;;;;;7.72;1.13;;;;;;;;;;4906645;29;20104;-73
2023/10/20 07:05:05;;;;;;;4.30;1.33;;;;;;;;;;4912539;29;20055;-74
2023/10/20 07:08:13;;;;;;;3.40;1.30;;;;;;;;;;4908740;29;20060;-73
2023/10/20 07:11:54;;;;;;;8.73;1.20;;;;;;;;;;4894340;29;20075;-69
2023/10/20 07:15:35;;;;;;;10.05;1.15;;;;;;;;;;4902086;29;20420;-67
2023/10/20 07:19:15;;;;;;;4.63;1.02;;;;;;;;;;4909959;29;20083;-70
2023/10/20 07:22:56;;;;;;;7.10;1.20;;;;;;;;;;4910277;29;20519;-74
2023/10/20 07:26:36;;;;;;;4.13;1.17;;;;;;;;;;4902497;29;20171;-70
2023/10/20 07:30:17;;;;;;;5.00;1.00;;;;;;;;;;4909319;29;20126;-72
2023/10/20 07:33:58;;;;;;;11.55;1.42;;;;;;;;;;4913282;29;20069;-72
2023/10/20 07:37:38;;;;;;;5.32;1.00;;;;;;;;;;4913662;29;20047;-70
2023/10/20 07:41:22;;;;;;;5.50;1.27;;;;;;;;;;4909793;29;20051;-70
2023/10/20 07:45:07;;;;;;;5.13;1.10;;;;;;;;;;4905020;29;20508;-72
2023/10/20 07:48:48;;;;;;;5.35;1.50;;;;;;;;;;4915493;29;20067;-71
2023/10/20 07:52:29;;;;;;;5.85;1.10;;;;;;;;;;4915336;29;20083;-72
2023/10/20 07:56:11;;;;;;;4.53;0.75;;;;;;;;;;4907627;29;20055;-73
2023/10/20 07:59:53;;;;;;;9.60;1.17;;;;;;;;;;4907187;29;20117;-77
2023/10/20 08:03:34;;;;;;;6.28;1.40;;;;;;;;;;4904748;29;20047;-70
2023/10/20 08:07:15;;;;;;;6.95;1.52;;;;;;;;;;4903825;29;20126;-72
2023/10/20 08:10:59;;;;;;;11.35;1.95;;;;;;;;;;4908833;29;20048;-73
2023/10/20 08:14:38;;;;;;;10.82;1.40;;;;;;;;;;4911922;29;20048;-73
2023/10/20 08:18:18;;;;;;;7.93;1.30;;;;;;;;;;4904786;29;20036;-73
2023/10/20 08:21:59;;;;;;;15.65;1.50;;;;;;;;;;4907965;29;20233;-73
2023/10/20 08:25:39;;;;;;;9.05;1.40;;;;;;;;;;4915990;29;20163;-72
2023/10/20 08:29:19;;;;;;;9.18;1.20;;;;;;;;;;4914695;29;20111;-73
2023/10/20 08:32:59;;;;;;;9.05;1.50;;;;;;;;;;4910237;29;20058;-71
2023/10/20 08:36:14;;;;;;;15.25;2.03;;;;;;;;;;4909344;29;20497;-73
2023/10/20 08:39:27;;;;;;;12.25;1.98;;;;;;;;;;4907911;29;20060;-74
2023/10/20 08:43:07;;;;;;;15.27;1.67;;;;;;;;;;4909964;29;20048;-72
2023/10/20 08:46:50;;;;;;;10.18;1.48;;;;;;;;;;4913701;29;20051;-71
2023/10/20 08:50:32;;;;;;;13.02;1.90;;;;;;;;;;4913118;29;20092;-73
2023/10/20 08:54:13;;;;;;;12.13;1.50;;;;;;;;;;4909293;29;20074;-72
2023/10/20 08:57:12;;;;;;;10.88;2.08;;;;;;;;;;4915691;29;20080;-75
2023/10/20 08:59:39;;;;;;;8.93;2.42;;;;;;;;;;4909784;29;20139;-72
2023/10/20 09:02:05;;;;;;;10.95;1.60;;;;;;;;;;4892415;29;20491;-73
2023/10/20 09:04:32;;;;;;;13.90;1.50;;;;;;;;;;4901163;29;20142;-71
2023/10/20 09:07:00;;;;;;;12.73;1.60;;;;;;;;;;4894602;29;20744;-72
2023/10/20 09:09:27;;;;;;;18.10;1.63;;;;;;;;;;4896472;29;20048;-72
2023/10/20 09:11:54;;;;;;;22.25;2.25;;;;;;;;;;4908425;29;20064;-73
2023/10/20 09:14:20;;;;;;;13.80;1.85;;;;;;;;;;4913809;29;20131;-73
2023/10/20 09:16:47;;;;;;;14.57;2.42;;;;;;;;;;4911235;29;20079;-75
2023/10/20 09:19:14;;;;;;;36.45;3.08;;;;;;;;;;4918884;29;20136;-78
2023/10/20 09:21:44;;;;;;;14.90;1.45;;;;;;;;;;4913023;29;20592;-73
2023/10/20 09:24:14;;;;;;;13.13;1.90;;;;;;;;;;4910458;29;20052;-73
2023/10/20 09:26:44;;;;;;;12.82;1.90;;;;;;;;;;4895454;29;20535;-72
2023/10/20 09:29:51;;;;;;;22.75;2.22;;;;;;;;;;4919378;29;20444;-72
2023/10/20 09:33:30;;;;;;;23.77;2.03;;;;;;;;;;4913869;29;20048;-74
2023/10/20 09:37:11;;;;;;;19.50;1.95;;;;;;;;;;4913774;29;20056;-74
2023/10/20 09:40:51;;;;;;;17.88;1.88;;;;;;;;;;4913488;29;20534;-74
2023/10/20 09:44:33;;;;;;;8.82;1.83;;;;;;;;;;4908863;29;20045;-73
2023/10/20 09:48:16;;;;;;;14.65;2.22;;;;;;;;;;4916268;29;20052;-74
2023/10/20 09:51:56;;;;;;;8.55;1.55;;;;;;;;;;4912283;29;20142;-74
2023/10/20 09:55:37;;;;;;;18.60;2.20;;;;;;;;;;4911024;29;20055;-72
2023/10/20 09:59:18;;;;;;;12.60;1.83;;;;;;;;;;4908365;29;20048;-73
2023/10/20 10:03:09;;;;;;;20.85;1.98;;;;;;;;;;4911819;29;20056;-76
2023/10/20 10:06:55;;;;;;;11.98;1.80;;;;;;;;;;4913663;29;20504;-75
2023/10/20 10:10:39;;;;;;;10.25;1.52;;;;;;;;;;4908685;29;20055;-72
2023/10/20 10:14:21;;;;;;;12.43;1.60;;;;;;;;;;4913163;29;20044;-73
2023/10/20 10:18:04;;;;;;;15.95;1.85;;;;;;;;;;4911624;29;20084;-73
2023/10/20 10:21:47;;;;;;;7.40;1.80;;;;;;;;;;4915975;29;20055;-75
2023/10/20 10:24:56;;;;;;;8.93;1.52;;;;;;;;;;4905703;29;20044;-74
2023/10/20 10:27:28;;;;;;;10.73;1.50;;;;;;;;;;4890568;29;20048;-73
2023/10/20 10:29:58;;;;;;;12.38;1.70;;;;;;;;;;4910967;29;20453;-75
2023/10/20 10:32:28;;;;;;;9.60;1.50;;;;;;;;;;4910440;29;20056;-72
2023/10/20 10:34:54;;;;;;;13.18;1.75;;;;;;;;;;4915201;29;20496;-73
2023/10/20 10:37:37;;;;;;;11.63;1.85;;;;;;;;;;4897015;29;20060;-72
2023/10/20 10:40:12;;;;;;;15.98;1.63;;;;;;;;;;4894513;29;20127;-74
2023/10/20 10:42:43;;;;;;;8.23;1.25;;;;;;;;;;4911776;29;20422;-72
2023/10/20 10:45:27;;;;;;;9.35;1.75;;;;;;;;;;4909374;29;20044;-73
2023/10/20 10:48:07;;;;;;;9.10;1.80;;;;;;;;;;4912865;29;20460;-75
2023/10/20 10:50:57;;;;;;;5.43;1.30;;;;;;;;;;4902420;29;20048;-75
2023/10/20 10:53:52;;;;;;;7.60;1.60;;;;;;;;;;4915086;29;20062;-72
2023/10/20 10:56:20;;;;;;;6.10;1.60;;;;;;;;;;4915724;29;20147;-73
2023/10/20 10:58:54;;;;;;;8.20;1.45;;;;;;;;;;4913048;29;20063;-74
2023/10/20 11:01:21;;;;;;;9.93;1.50;;;;;;;;;;4922869;29;20051;-74
2023/10/20 11:03:47;;;;;;;7.38;1.35;;;;;;;;;;4916643;29;20060;-74
2023/10/20 11:06:13;;;;;;;2.67;1.27;;;;;;;;;;4915309;29;20083;-71
2023/10/20 11:08:44;;;;;;;7.82;1.15;;;;;;;;;;4911523;29;20044;-73
2023/10/20 11:11:13;;;;;;;12.18;1.38;;;;;;;;;;4908957;29;20075;-76
2023/10/20 11:13:41;;;;;;;7.68;1.10;;;;;;;;;;4906673;29;20109;-72
2023/10/20 11:16:07;;;;;;;6.10;1.20;;;;;;;;;;4914594;29;20063;-75
2023/10/20 11:18:35;;;;;;;7.78;1.33;;;;;;;;;;4898395;29;20044;-74
2023/10/20 11:21:42;;;;;;;20.70;1.45;;;;;;;;;;4903719;29;20057;-75
2023/10/20 11:25:23;;;;;;;4.30;1.23;;;;;;;;;;4904067;29;20051;-73
2023/10/20 11:29:04;;;;;;;5.47;1.17;;;;;;;;;;4908559;29;20158;-73
2023/10/20 11:32:44;;;;;;;5.70;0.90;;;;;;;;;;4908269;29;20404;-73
2023/10/20 11:36:24;;;;;;;3.60;1.05;;;;;;;;;;4904355;29;20519;-75
2023/10/20 11:40:04;;;;;;;10.65;1.52;;;;;;;;;;4906533;29;20048;-74
2023/10/20 11:43:44;;;;;;;6.28;1.27;;;;;;;;;;4913763;29;20106;-74
2023/10/20 11:47:25;;;;;;;7.35;1.25;;;;;;;;;;4910035;29;20059;-75
2023/10/20 11:51:05;;;;;;;6.13;1.13;;;;;;;;;;4910085;29;20048;-75
2023/10/20 11:54:48;;;;;;;4.95;1.05;;;;;;;;;;4912892;29;20076;-72
2023/10/20 11:58:28;;;;;;;4.28;0.80;;;;;;;;;;4911275;29;20055;-72
2023/10/20 12:02:12;;;;;;;10.57;1.50;;;;;;;;;;4913013;29;20051;-73
2023/10/20 12:05:52;;;;;;;7.63;1.23;;;;;;;;;;4906423;29;20475;-74
2023/10/20 12:09:33;;;;;;;4.60;1.00;;;;;;;;;;4914529;29;20067;-74
2023/10/20 12:13:12;;;;;;;9.82;1.35;;;;;;;;;;4908796;29;20064;-73
2023/10/20 12:15:39;;;;;;;9.38;1.60;;;;;;;;;;4911820;29;20675;-74
2023/10/20 12:18:08;;;;;;;2.88;0.90;;;;;;;;;;4896911;29;20154;-72
2023/10/20 12:20:34;;;;;;;4.60;1.30;;;;;;;;;;4883682;29;20139;-75
2023/10/20 12:23:01;;;;;;;2.58;1.05;;;;;;;;;;4880628;29;20072;-74
2023/10/20 12:25:28;;;;;;;6.18;1.17;;;;;;;;;;4912600;29;20412;-74
2023/10/20 12:27:54;;;;;;;5.82;0.98;;;;;;;;;;4910794;29;20512;-73
2023/10/20 12:30:21;;;;;;;7.18;1.23;;;;;;;;;;4895584;29;20036;-70
2023/10/20 12:32:48;;;;;;;6.72;1.67;;;;;;;;;;4908961;29;20527;-70
2023/10/20 12:35:15;;;;;;;11.02;1.02;;;;;;;;;;4916345;29;20052;-70
2023/10/20 12:37:45;;;;;;;11.38;1.27;;;;;;;;;;4893847;29;20211;-72
2023/10/20 12:40:13;;;;;;;4.65;0.90;;;;;;;;;;4891130;29;20052;-71
2023/10/20 12:42:40;;;;;;;12.30;1.30;;;;;;;;;;4893055;29;20064;-71
2023/10/20 12:45:11;;;;;;;11.60;1.65;;;;;;;;;;4894035;29;20610;-71
2023/10/20 12:47:37;;;;;;;2.38;0.85;;;;;;;;;;4892273;29;20052;-69
2023/10/20 12:50:06;;;;;;;5.80;1.10;;;;;;;;;;4892392;29;20053;-67
2023/10/20 12:52:32;;;;;;;10.63;1.40;;;;;;;;;;4877210;29;20116;-70
2023/10/20 12:55:00;;;;;;;6.90;1.20;;;;;;;;;;4892159;29;20654;-71
2023/10/20 12:57:27;;;;;;;6.70;0.90;;;;;;;;;;4894978;29;20049;-72
2023/10/20 12:59:53;;;;;;;4.05;1.00;;;;;;;;;;4893809;29;20243;-70
2023/10/20 13:02:19;;;;;;;4.93;0.75;;;;;;;;;;4891722;29;20104;-71
2023/10/20 13:04:45;;;;;;;6.05;1.05;;;;;;;;;;4892297;29;20064;-70
2023/10/20 13:07:11;;;;;;;7.40;0.98;;;;;;;;;;4892922;29;20045;-72
2023/10/20 13:09:37;;;;;;;5.03;1.23;;;;;;;;;;4887386;29;20060;-69
2023/10/20 13:12:03;;;;;;;10.52;1.20;;;;;;;;;;4891600;29;20044;-68
2023/10/20 13:14:30;;;;;;;4.78;1.25;;;;;;;;;;4898372;29;20053;-71
2023/10/20 13:16:57;;;;;;;5.07;1.40;;;;;;;;;;4895719;29;20086;-70
2023/10/20 13:19:25;;;;;;;13.75;1.30;;;;;;;;;;4895197;29;20063;-71
2023/10/20 13:21:52;;;;;;;3.97;1.42;;;;;;;;;;4894126;29;20075;-70
2023/10/20 13:24:19;;;;;;;4.07;1.20;;;;;;;;;;4895245;29;20480;-71
2023/10/20 13:26:52;;;;;;;3.70;1.00;;;;;;;;;;4897342;29;20516;-73
2023/10/20 13:29:22;;;;;;;3.22;0.88;;;;;;;;;;4896960;29;20052;-72
2023/10/20 13:31:50;;;;;;;13.32;1.27;;;;;;;;;;4899964;29;20057;-70
2023/10/20 13:34:17;;;;;;;4.10;1.17;;;;;;;;;;4896395;29;20041;-71
2023/10/20 13:36:43;;;;;;;7.60;1.10;;;;;;;;;;4896905;29;20047;-71
2023/10/20 13:39:12;;;;;;;2.65;0.93;;;;;;;;;;4912012;29;20143;-71
2023/10/20 13:41:37;;;;;;;6.90;1.00;;;;;;;;;;4911709;29;20071;-70
2023/10/20 13:44:08;;;;;;;4.68;1.00;;;;;;;;;;4913364;29;20048;-70
2023/10/20 13:46:33;;;;;;;1.60;0.88;;;;;;;;;;4899402;29;20048;-73
2023/10/20 13:49:00;;;;;;;5.53;1.15;;;;;;;;;;4914692;29;20056;-71
2023/10/20 13:51:29;;;;;;;10.63;1.23;;;;;;;;;;4912434;29;20115;-72
2023/10/20 13:53:57;;;;;;;4.60;0.90;;;;;;;;;;4912891;29;20104;-71
2023/10/20 13:56:23;;;;;;;3.80;1.00;;;;;;;;;;4914460;29;20060;-71
2023/10/20 13:58:50;;;;;;;1.38;0.68;;;;;;;;;;4911472;29;20110;-71
2023/10/20 14:01:15;;;;;;;4.50;0.70;;;;;;;;;;4914108;29;20477;-71
2023/10/20 14:03:44;;;;;;;7.25;0.95;;;;;;;;;;4895402;29;20473;-70
2023/10/20 14:06:10;;;;;;;3.92;1.10;;;;;;;;;;4911327;29;20075;-70
2023/10/20 14:08:37;;;;;;;8.32;0.88;;;;;;;;;;4912226;29;20337;-71
2023/10/20 14:11:05;;;;;;;4.15;0.77;;;;;;;;;;4909626;29;20052;-72
2023/10/20 14:13:32;;;;;;;5.63;1.38;;;;;;;;;;4917128;29;20187;-70
2023/10/20 14:16:00;;;;;;;3.83;0.85;;;;;;;;;;4903380;29;20196;-72
2023/10/20 14:18:32;;;;;;;2.83;0.85;;;;;;;;;;4917917;29;20062;-71
2023/10/20 14:20:59;;;;;;;3.33;1.05;;;;;;;;;;4919450;29;20087;-70
2023/10/20 14:23:27;;;;;;;1.98;0.90;;;;;;;;;;4913556;29;20054;-69
2023/10/20 14:25:57;;;;;;;6.65;1.27;;;;;;;;;;4917693;29;20090;-69
2023/10/20 14:28:33;;;;;;;2.25;0.82;;;;;;;;;;4898478;29;20563;-70
2023/10/20 14:31:06;;;;;;;7.10;0.90;;;;;;;;;;4912723;29;20133;-70
2023/10/20 14:33:36;;;;;;;3.53;0.75;;;;;;;;;;4913327;29;20283;-70
2023/10/20 14:36:03;;;;;;;1.85;0.70;;;;;;;;;;4911976;29;20043;-70
2023/10/20 14:38:33;;;;;;;5.50;0.82;;;;;;;;;;4923841;29;20076;-70
2023/10/20 14:41:03;;;;;;;1.50;0.50;;;;;;;;;;4910578;29;20412;-69
2023/10/20 14:43:34;;;;;;;2.83;0.80;;;;;;;;;;4908764;29;20052;-70
2023/10/20 14:46:03;;;;;;;3.05;0.65;;;;;;;;;;4910025;29;20063;-71
2023/10/20 14:48:32;;;;;;;4.03;0.63;;;;;;;;;;4912027;29;20148;-70
2023/10/20 14:51:03;;;;;;;0.98;0.63;;;;;;;;;;4911095;29;20056;-72
2023/10/20 14:53:31;;;;;;;3.20;0.98;;;;;;;;;;4911953;29;20044;-69
2023/10/20 14:55:57;;;;;;;3.83;0.80;;;;;;;;;;4918878;29;20040;-71
2023/10/20 14:58:24;;;;;;;3.10;0.85;;;;;;;;;;4923228;29;20047;-72
2023/10/20 15:00:51;;;;;;;1.92;0.70;;;;;;;;;;4916001;29;20050;-70
2023/10/20 15:03:21;;;;;;;2.58;0.55;;;;;;;;;;4917620;29;20059;-73
2023/10/20 15:05:47;;;;;;;2.13;0.70;;;;;;;;;;4918066;29;20781;-70
2023/10/20 15:08:14;;;;;;;3.83;0.52;;;;;;;;;;4894914;29;20044;-71
2023/10/20 15:10:40;;;;;;;6.32;1.25;;;;;;;;;;4913899;29;20404;-69
2023/10/20 15:13:06;;;;;;;4.82;0.90;;;;;;;;;;4911214;29;20071;-68
2023/10/20 15:15:33;;;;;;;2.13;0.70;;;;;;;;;;4911212;29;20130;-70
2023/10/20 15:18:04;;;;;;;3.03;0.50;;;;;;;;;;4911097;29;20504;-70
2023/10/20 15:20:30;;;;;;;2.55;0.52;;;;;;;;;;4912724;29;20176;-72
2023/10/20 15:22:57;;;;;;;3.97;0.88;;;;;;;;;;4911113;29;20099;-71
2023/10/20 15:25:23;;;;;;;2.63;0.60;;;;;;;;;;4912745;29;20472;-72
2023/10/20 15:27:51;;;;;;;3.53;0.70;;;;;;;;;;4913389;29;20056;-72
2023/10/20 15:30:20;;;;;;;2.28;0.50;;;;;;;;;;4901216;29;20127;-72
2023/10/20 15:32:46;;;;;;;1.33;0.50;;;;;;;;;;4900223;29;20064;-72
2023/10/20 15:35:13;;;;;;;1.70;0.57;;;;;;;;;;4912079;29;20424;-71
2023/10/20 15:37:41;;;;;;;3.20;0.60;;;;;;;;;;4910314;29;20520;-71
2023/10/20 15:40:10;;;;;;;2.90;0.50;;;;;;;;;;4914682;29;20036;-70
2023/10/20 15:42:40;;;;;;;5.25;0.60;;;;;;;;;;4912212;29;20466;-70
2023/10/20 15:45:06;;;;;;;2.65;0.57;;;;;;;;;;4910488;29;20059;-69
2023/10/20 15:47:35;;;;;;;2.53;0.80;;;;;;;;;;4915145;29;20079;-71
2023/10/20 15:50:03;;;;;;;1.00;0.63;;;;;;;;;;4898603;29;20056;-70
2023/10/20 15:52:30;;;;;;;2.22;0.70;;;;;;;;;;4923686;29;20132;-72
2023/10/20 15:54:57;;;;;;;3.63;0.63;;;;;;;;;;4920423;29;20111;-70
2023/10/20 15:57:23;;;;;;;1.30;0.60;;;;;;;;;;4914582;29;20056;-71
2023/10/20 15:59:58;;;;;;;0.93;0.50;;;;;;;;;;4916393;29;20487;-70
2023/10/20 16:02:24;;;;;;;5.25;0.80;;;;;;;;;;4919476;29;20056;-70
2023/10/20 16:04:52;;;;;;;3.10;0.80;;;;;;;;;;4882515;29;20465;-72
2023/10/20 16:07:19;;;;;;;5.18;0.50;;;;;;;;;;4891729;29;20473;-71
2023/10/20 16:09:46;;;;;;;4.47;0.57;;;;;;;;;;4899598;29;20048;-73
2023/10/20 16:12:14;;;;;;;4.43;0.60;;;;;;;;;;4910521;29;20177;-68
2023/10/20 16:14:41;;;;;;;1.42;0.50;;;;;;;;;;4906334;29;20618;-69
2023/10/20 16:17:11;;;;;;;2.00;0.85;;;;;;;;;;4908778;29;20063;-68
2023/10/20 16:19:37;;;;;;;7.55;1.05;;;;;;;;;;4884872;29;20393;-69
2023/10/20 16:22:05;;;;;;;1.60;0.73;;;;;;;;;;4901111;29;20050;-70
2023/10/20 16:24:31;;;;;;;1.17;0.50;;;;;;;;;;4900225;29;20076;-70
2023/10/20 16:27:00;;;;;;;5.55;0.65;;;;;;;;;;4898355;29;20055;-70
2023/10/20 16:29:26;;;;;;;3.50;0.60;;;;;;;;;;4906688;29;20059;-70
2023/10/20 16:31:52;;;;;;;2.72;0.55;;;;;;;;;;4912099;29;20143;-71
2023/10/20 16:34:22;;;;;;;1.85;0.95;;;;;;;;;;4909306;29;20052;-72
2023/10/20 16:36:49;;;;;;;2.45;0.80;;;;;;;;;;4907493;29;20936;-72
2023/10/20 16:39:18;;;;;;;0.98;0.38;;;;;;;;;;4886400;29;20558;-69
2023/10/20 16:41:45;;;;;;;4.32;0.65;;;;;;;;;;4892791;29;20051;-72
2023/10/20 16:44:12;;;;;;;2.80;0.63;;;;;;;;;;4898185;29;20049;-70
2023/10/20 16:46:40;;;;;;;7.20;0.55;;;;;;;;;;4896805;29;20486;-71
2023/10/20 16:49:06;;;;;;;2.90;0.70;;;;;;;;;;4892485;29;20115;-71
2023/10/20 16:51:33;;;;;;;1.65;0.43;;;;;;;;;;4895189;29;20454;-71
2023/10/20 16:53:59;;;;;;;0.75;0.50;;;;;;;;;;4888238;29;20056;-71
2023/10/20 16:56:25;;;;;;;1.38;0.43;;;;;;;;;;4893147;29;20133;-71
2023/10/20 16:59:33;;;;;;;3.30;0.50;;;;;;;;;;4887919;29;20234;-73
2023/10/20 17:03:17;;;;;;;0.40;0.35;;;;;;;;;;4888726;29;20052;-66
2023/10/20 17:06:57;;;;;;;4.32;0.57;;;;;;;;;;4889953;29;20235;-68
2023/10/20 17:10:38;;;;;;;2.63;0.55;;;;;;;;;;4892249;29;20124;-70
2023/10/20 17:14:19;;;;;;;2.78;0.65;;;;;;;;;;4892713;29;20067;-67
2023/10/20 17:17:59;;;;;;;4.15;0.50;;;;;;;;;;4895610;29;20070;-69